Airfield :
LOGIN :

Register | Disclaimer

   EN    FR    IT 

 










Legend :    VFR   Marginal VFR   IFR   Intensive IFR   Very Intensive IFR
Visi :
Ceiling :
>= 8 km
>= 3000ft
5 to 8 km
1000 to 3000 ft
1500m to 5 km
500 to 1000 ft
800 to 1500m
200 to 500 ft
< 800m
< 200 ft
Symbols :   Thunderstorms  Fog  Heavy snow  Heavy precipitations  Wind > 20 kt
SIGMETs :     Misc.  Thunderstorms  Icing  Turbulence  Mountain Waves  Volcanic Ashes






- Airport Elevation : 1400 ft


LSME - Luzern Emmen

CURRENT METAR :
  • 261050Z VRB01KT 2300 BR SCT002 OVC005 M02/M02 Q1033 RMK YLO

EXPIRED METARs :
  • 261020Z VRB02KT 2800 BR SCT002 OVC004 M02/M02 Q1033 RMK YLO
  • 260920Z VRB02KT 0350 R04/1700N R22/0350V0550D BCFG VV001 M03/M03 Q1033 RMK RED
  • 260850Z VRB02KT 0300 R04/0450V0650D R22/1000VP2000D FZFG OVC002 M03/M03 Q1033 RMK RED
  • 260820Z VRB01KT 3200 BKN003 M04/M04 Q1033 RMK YLO
  • 260750Z 22004KT 6000 VCFG SCT002 M04/M04 Q1033 RMK WHT

Expired Forecast.



MET'MAP, your aeronautical weather chart ! - Copyright ORBIFLY December 2007 - Disclaimer

ORBIFLY MET'MAP TEAM :

Programming & Development : Alexandra Zaïnal
Original concept : Baudouin d'Aumeries
Technical & hardware support : Manuel Goepfert
Assistance : Marc-Olivier Méhu

Contact : metmap@orbifly.com




SOURCES & CREDITS :

   NOAA